sensor_id;sensor_type;location;lat;lon;timestamp;pressure;altitude;pressure_sealevel;temperature;humidity
75247;BME280;63844;50.042;19.224;2022-11-27T00:00:28;100359.87;;;3.65;88.96
75247;BME280;63844;50.042;19.224;2022-11-27T00:03:14;100354.65;;;3.64;89.03
75247;BME280;63844;50.042;19.224;2022-11-27T00:05:53;100357.01;;;3.59;88.76
75247;BME280;63844;50.042;19.224;2022-11-27T00:08:21;100353.38;;;3.55;88.87
75247;BME280;63844;50.042;19.224;2022-11-27T00:10:47;100356.60;;;3.50;88.78
75247;BME280;63844;50.042;19.224;2022-11-27T00:13:14;100355.80;;;3.46;88.93
75247;BME280;63844;50.042;19.224;2022-11-27T00:15:40;100355.63;;;3.46;89.00
75247;BME280;63844;50.042;19.224;2022-11-27T00:18:07;100352.98;;;3.47;88.85
75247;BME280;63844;50.042;19.224;2022-11-27T00:20:33;100348.91;;;3.50;88.96
75247;BME280;63844;50.042;19.224;2022-11-27T00:23:00;100349.06;;;3.51;89.35
75247;BME280;63844;50.042;19.224;2022-11-27T00:25:26;100354.41;;;3.57;89.05
75247;BME280;63844;50.042;19.224;2022-11-27T00:27:53;100350.59;;;3.55;88.75
75247;BME280;63844;50.042;19.224;2022-11-27T00:30:19;100348.67;;;3.53;88.87
75247;BME280;63844;50.042;19.224;2022-11-27T00:32:46;100345.95;;;3.59;88.74
75247;BME280;63844;50.042;19.224;2022-11-27T00:35:12;100343.70;;;3.59;89.07
75247;BME280;63844;50.042;19.224;2022-11-27T00:37:39;100342.20;;;3.54;89.03
75247;BME280;63844;50.042;19.224;2022-11-27T00:40:06;100346.91;;;3.55;88.83
75247;BME280;63844;50.042;19.224;2022-11-27T00:42:32;100348.85;;;3.53;89.10
75247;BME280;63844;50.042;19.224;2022-11-27T00:44:59;100346.05;;;3.55;88.79
75247;BME280;63844;50.042;19.224;2022-11-27T00:47:25;100345.36;;;3.53;88.82
75247;BME280;63844;50.042;19.224;2022-11-27T00:49:51;100349.63;;;3.49;88.65
75247;BME280;63844;50.042;19.224;2022-11-27T00:52:18;100348.09;;;3.46;88.63
75247;BME280;63844;50.042;19.224;2022-11-27T00:54:44;100346.38;;;3.45;88.89
75247;BME280;63844;50.042;19.224;2022-11-27T00:57:10;100347.90;;;3.47;89.02
75247;BME280;63844;50.042;19.224;2022-11-27T00:59:37;100349.16;;;3.46;88.62
75247;BME280;63844;50.042;19.224;2022-11-27T01:02:03;100342.84;;;3.47;89.12
75247;BME280;63844;50.042;19.224;2022-11-27T01:04:29;100340.00;;;3.49;89.32
75247;BME280;63844;50.042;19.224;2022-11-27T01:06:56;100336.64;;;3.51;89.33
75247;BME280;63844;50.042;19.224;2022-11-27T01:09:22;100335.50;;;3.57;89.32
75247;BME280;63844;50.042;19.224;2022-11-27T01:11:49;100336.83;;;3.62;89.06
75247;BME280;63844;50.042;19.224;2022-11-27T01:14:17;100336.59;;;3.65;89.21
75247;BME280;63844;50.042;19.224;2022-11-27T01:16:44;100332.27;;;3.61;88.34
75247;BME280;63844;50.042;19.224;2022-11-27T01:19:12;100332.87;;;3.57;87.95
75247;BME280;63844;50.042;19.224;2022-11-27T01:21:39;100334.55;;;3.62;88.30
75247;BME280;63844;50.042;19.224;2022-11-27T01:24:06;100333.89;;;3.59;88.16
75247;BME280;63844;50.042;19.224;2022-11-27T01:26:33;100335.66;;;3.58;88.30
75247;BME280;63844;50.042;19.224;2022-11-27T01:29:00;100333.81;;;3.53;88.45
75247;BME280;63844;50.042;19.224;2022-11-27T01:31:29;100334.55;;;3.51;88.33
75247;BME280;63844;50.042;19.224;2022-11-27T01:33:58;100331.65;;;3.46;88.58
75247;BME280;63844;50.042;19.224;2022-11-27T01:36:25;100331.73;;;3.41;88.85
75247;BME280;63844;50.042;19.224;2022-11-27T01:38:52;100331.73;;;3.42;88.82
75247;BME280;63844;50.042;19.224;2022-11-27T01:41:26;100333.13;;;3.41;88.39
75247;BME280;63844;50.042;19.224;2022-11-27T01:44:02;100330.37;;;3.38;88.65
75247;BME280;63844;50.042;19.224;2022-11-27T01:46:36;100327.70;;;3.40;88.82
75247;BME280;63844;50.042;19.224;2022-11-27T01:51:59;100329.85;;;3.49;88.72
75247;BME280;63844;50.042;19.224;2022-11-27T01:54:55;100332.08;;;3.52;88.88
75247;BME280;63844;50.042;19.224;2022-11-27T01:57:32;100332.48;;;3.59;88.74
75247;BME280;63844;50.042;19.224;2022-11-27T02:00:05;100334.19;;;3.62;88.18
75247;BME280;63844;50.042;19.224;2022-11-27T02:02:32;100334.88;;;3.63;87.97
75247;BME280;63844;50.042;19.224;2022-11-27T02:04:58;100333.58;;;3.57;87.55
75247;BME280;63844;50.042;19.224;2022-11-27T02:07:24;100335.46;;;3.60;87.84
75247;BME280;63844;50.042;19.224;2022-11-27T02:09:51;100336.51;;;3.59;88.01
75247;BME280;63844;50.042;19.224;2022-11-27T02:12:27;100338.64;;;3.58;88.14
75247;BME280;63844;50.042;19.224;2022-11-27T02:15:00;100340.65;;;3.53;88.24
75247;BME280;63844;50.042;19.224;2022-11-27T02:25:50;100345.27;;;3.47;88.08
75247;BME280;63844;50.042;19.224;2022-11-27T02:28:39;100344.64;;;3.43;87.96
75247;BME280;63844;50.042;19.224;2022-11-27T02:31:19;100342.19;;;3.43;88.00
75247;BME280;63844;50.042;19.224;2022-11-27T02:33:53;100344.98;;;3.43;87.67
75247;BME280;63844;50.042;19.224;2022-11-27T02:36:25;100345.83;;;3.46;87.88
75247;BME280;63844;50.042;19.224;2022-11-27T02:39:07;100347.17;;;3.49;88.09
75247;BME280;63844;50.042;19.224;2022-11-27T02:41:43;100350.24;;;3.43;88.12
75247;BME280;63844;50.042;19.224;2022-11-27T02:44:12;100356.02;;;3.43;88.23
75247;BME280;63844;50.042;19.224;2022-11-27T02:46:40;100357.78;;;3.42;88.06
75247;BME280;63844;50.042;19.224;2022-11-27T02:49:10;100359.29;;;3.34;87.92
75247;BME280;63844;50.042;19.224;2022-11-27T02:51:45;100350.14;;;3.26;88.18
75247;BME280;63844;50.042;19.224;2022-11-27T02:54:19;100358.78;;;3.21;88.26
75247;BME280;63844;50.042;19.224;2022-11-27T02:56:48;100358.29;;;3.20;88.76
75247;BME280;63844;50.042;19.224;2022-11-27T02:59:17;100362.77;;;3.23;88.83
75247;BME280;63844;50.042;19.224;2022-11-27T03:01:50;100362.23;;;3.24;88.98
75247;BME280;63844;50.042;19.224;2022-11-27T03:04:22;100366.55;;;3.28;88.76
75247;BME280;63844;50.042;19.224;2022-11-27T03:06:54;100367.41;;;3.29;88.67
75247;BME280;63844;50.042;19.224;2022-11-27T03:09:30;100366.35;;;3.29;88.68
75247;BME280;63844;50.042;19.224;2022-11-27T03:11:59;100370.08;;;3.27;88.79
75247;BME280;63844;50.042;19.224;2022-11-27T03:14:27;100369.04;;;3.26;88.92
75247;BME280;63844;50.042;19.224;2022-11-27T03:19:47;100371.76;;;3.32;88.58
75247;BME280;63844;50.042;19.224;2022-11-27T03:22:16;100370.89;;;3.31;88.54
75247;BME280;63844;50.042;19.224;2022-11-27T03:24:43;100368.41;;;3.32;88.44
75247;BME280;63844;50.042;19.224;2022-11-27T03:27:12;100367.11;;;3.26;88.39
75247;BME280;63844;50.042;19.224;2022-11-27T03:29:46;100364.34;;;3.24;88.22
75247;BME280;63844;50.042;19.224;2022-11-27T03:32:14;100362.42;;;3.23;88.28
75247;BME280;63844;50.042;19.224;2022-11-27T03:34:41;100360.39;;;3.20;88.36
75247;BME280;63844;50.042;19.224;2022-11-27T03:37:08;100365.64;;;3.19;88.36
75247;BME280;63844;50.042;19.224;2022-11-27T03:39:35;100362.85;;;3.18;88.45
75247;BME280;63844;50.042;19.224;2022-11-27T03:42:08;100362.36;;;3.16;88.72
75247;BME280;63844;50.042;19.224;2022-11-27T03:53:30;100352.57;;;3.15;88.85
75247;BME280;63844;50.042;19.224;2022-11-27T03:56:12;100353.29;;;3.13;88.87
75247;BME280;63844;50.042;19.224;2022-11-27T04:01:16;100354.56;;;3.09;88.42
75247;BME280;63844;50.042;19.224;2022-11-27T04:03:45;100360.71;;;3.08;88.76
75247;BME280;63844;50.042;19.224;2022-11-27T04:06:11;100363.93;;;3.03;88.17
75247;BME280;63844;50.042;19.224;2022-11-27T04:08:38;100364.11;;;3.02;88.00
75247;BME280;63844;50.042;19.224;2022-11-27T04:11:05;100361.87;;;3.00;88.08
75247;BME280;63844;50.042;19.224;2022-11-27T04:13:32;100363.08;;;3.01;88.50
75247;BME280;63844;50.042;19.224;2022-11-27T04:16:02;100359.91;;;3.02;88.28
75247;BME280;63844;50.042;19.224;2022-11-27T04:18:29;100361.53;;;3.00;88.43
75247;BME280;63844;50.042;19.224;2022-11-27T04:20:55;100364.12;;;3.01;88.58
75247;BME280;63844;50.042;19.224;2022-11-27T04:23:22;100363.59;;;3.02;88.88
75247;BME280;63844;50.042;19.224;2022-11-27T04:25:49;100360.95;;;3.03;88.80
75247;BME280;63844;50.042;19.224;2022-11-27T04:28:16;100357.14;;;3.01;88.51
75247;BME280;63844;50.042;19.224;2022-11-27T04:30:50;100356.46;;;2.99;88.30
75247;BME280;63844;50.042;19.224;2022-11-27T04:33:17;100355.10;;;2.97;88.27
75247;BME280;63844;50.042;19.224;2022-11-27T04:35:44;100353.48;;;2.99;87.93
75247;BME280;63844;50.042;19.224;2022-11-27T04:38:10;100351.46;;;2.93;88.17
75247;BME280;63844;50.042;19.224;2022-11-27T04:40:37;100347.60;;;2.95;88.49
75247;BME280;63844;50.042;19.224;2022-11-27T04:43:03;100350.05;;;2.94;88.58
75247;BME280;63844;50.042;19.224;2022-11-27T04:45:30;100352.67;;;2.93;88.76
75247;BME280;63844;50.042;19.224;2022-11-27T04:47:56;100352.69;;;2.93;88.96
75247;BME280;63844;50.042;19.224;2022-11-27T04:50:23;100354.79;;;2.93;88.89
75247;BME280;63844;50.042;19.224;2022-11-27T04:52:49;100352.69;;;2.92;88.98
75247;BME280;63844;50.042;19.224;2022-11-27T04:55:16;100350.90;;;2.96;88.81
75247;BME280;63844;50.042;19.224;2022-11-27T04:57:42;100351.45;;;2.94;88.66
75247;BME280;63844;50.042;19.224;2022-11-27T05:00:09;100351.85;;;2.89;88.67
75247;BME280;63844;50.042;19.224;2022-11-27T05:02:36;100353.64;;;2.86;88.77
75247;BME280;63844;50.042;19.224;2022-11-27T05:05:03;100355.52;;;2.91;88.86
75247;BME280;63844;50.042;19.224;2022-11-27T05:07:29;100353.81;;;3.01;88.85
75247;BME280;63844;50.042;19.224;2022-11-27T05:09:56;100354.28;;;3.05;88.71
75247;BME280;63844;50.042;19.224;2022-11-27T05:12:22;100356.58;;;3.04;88.86
75247;BME280;63844;50.042;19.224;2022-11-27T05:14:49;100354.64;;;3.05;88.96
75247;BME280;63844;50.042;19.224;2022-11-27T05:17:15;100355.17;;;3.04;88.50
75247;BME280;63844;50.042;19.224;2022-11-27T05:19:42;100355.40;;;2.99;88.51
75247;BME280;63844;50.042;19.224;2022-11-27T05:22:09;100353.85;;;2.97;88.47
75247;BME280;63844;50.042;19.224;2022-11-27T05:24:35;100353.88;;;2.96;88.55
75247;BME280;63844;50.042;19.224;2022-11-27T05:27:01;100356.14;;;2.97;88.60
75247;BME280;63844;50.042;19.224;2022-11-27T05:29:28;100353.86;;;2.98;88.27
75247;BME280;63844;50.042;19.224;2022-11-27T05:31:54;100349.70;;;2.95;88.72
75247;BME280;63844;50.042;19.224;2022-11-27T05:34:21;100346.36;;;2.95;88.76
75247;BME280;63844;50.042;19.224;2022-11-27T05:36:47;100347.20;;;2.98;88.87
75247;BME280;63844;50.042;19.224;2022-11-27T05:39:14;100348.23;;;3.00;88.88
75247;BME280;63844;50.042;19.224;2022-11-27T05:41:41;100350.54;;;2.97;88.94
75247;BME280;63844;50.042;19.224;2022-11-27T05:44:13;100351.86;;;3.03;89.06
75247;BME280;63844;50.042;19.224;2022-11-27T05:46:40;100354.23;;;3.08;89.06
75247;BME280;63844;50.042;19.224;2022-11-27T05:49:11;100354.23;;;3.08;88.79
75247;BME280;63844;50.042;19.224;2022-11-27T05:51:38;100355.13;;;3.07;88.83
75247;BME280;63844;50.042;19.224;2022-11-27T05:54:05;100355.30;;;3.08;88.90
75247;BME280;63844;50.042;19.224;2022-11-27T05:56:31;100358.14;;;3.04;88.39
75247;BME280;63844;50.042;19.224;2022-11-27T05:58:58;100351.38;;;3.00;88.51
75247;BME280;63844;50.042;19.224;2022-11-27T06:01:24;100348.04;;;3.01;88.81
75247;BME280;63844;50.042;19.224;2022-11-27T06:03:50;100345.27;;;2.99;89.05
75247;BME280;63844;50.042;19.224;2022-11-27T06:06:18;100349.63;;;3.00;89.16
75247;BME280;63844;50.042;19.224;2022-11-27T06:08:46;100350.48;;;3.02;89.01
75247;BME280;63844;50.042;19.224;2022-11-27T06:11:18;100352.19;;;3.05;88.76
75247;BME280;63844;50.042;19.224;2022-11-27T06:13:47;100346.56;;;3.07;89.03
75247;BME280;63844;50.042;19.224;2022-11-27T06:16:16;100348.67;;;3.05;88.93
75247;BME280;63844;50.042;19.224;2022-11-27T06:18:43;100350.44;;;3.05;88.74
75247;BME280;63844;50.042;19.224;2022-11-27T06:21:13;100349.80;;;3.00;88.81
75247;BME280;63844;50.042;19.224;2022-11-27T06:23:41;100348.95;;;2.98;88.85
75247;BME280;63844;50.042;19.224;2022-11-27T06:26:20;100351.45;;;2.95;88.93
75247;BME280;63844;50.042;19.224;2022-11-27T06:28:47;100350.94;;;2.95;88.93
75247;BME280;63844;50.042;19.224;2022-11-27T06:31:17;100352.48;;;2.97;88.60
75247;BME280;63844;50.042;19.224;2022-11-27T06:33:45;100351.27;;;2.96;88.58
75247;BME280;63844;50.042;19.224;2022-11-27T06:36:12;100350.19;;;2.98;88.42
75247;BME280;63844;50.042;19.224;2022-11-27T06:38:38;100346.91;;;2.94;88.77
75247;BME280;63844;50.042;19.224;2022-11-27T06:41:10;100348.08;;;2.97;88.70
75247;BME280;63844;50.042;19.224;2022-11-27T06:43:37;100346.52;;;2.95;88.74
75247;BME280;63844;50.042;19.224;2022-11-27T06:46:05;100343.75;;;2.95;88.77
75247;BME280;63844;50.042;19.224;2022-11-27T06:48:32;100341.80;;;2.97;88.96
75247;BME280;63844;50.042;19.224;2022-11-27T06:51:00;100339.70;;;2.97;88.94
75247;BME280;63844;50.042;19.224;2022-11-27T06:53:29;100343.86;;;2.99;89.10
75247;BME280;63844;50.042;19.224;2022-11-27T06:55:56;100343.36;;;2.98;89.28
75247;BME280;63844;50.042;19.224;2022-11-27T06:58:22;100341.89;;;3.03;89.08
75247;BME280;63844;50.042;19.224;2022-11-27T07:00:49;100346.91;;;3.07;89.21
75247;BME280;63844;50.042;19.224;2022-11-27T07:03:15;100344.63;;;3.08;88.71
75247;BME280;63844;50.042;19.224;2022-11-27T07:05:42;100355.66;;;3.06;88.56
75247;BME280;63844;50.042;19.224;2022-11-27T07:08:08;100359.00;;;3.06;88.57
75247;BME280;63844;50.042;19.224;2022-11-27T07:10:35;100360.21;;;3.06;88.27
75247;BME280;63844;50.042;19.224;2022-11-27T07:13:01;100356.22;;;3.03;88.42
75247;BME280;63844;50.042;19.224;2022-11-27T07:15:28;100354.58;;;3.09;88.59
75247;BME280;63844;50.042;19.224;2022-11-27T07:17:54;100358.70;;;3.14;88.44
75247;BME280;63844;50.042;19.224;2022-11-27T07:20:21;100358.02;;;3.14;88.51
75247;BME280;63844;50.042;19.224;2022-11-27T07:22:47;100362.84;;;3.20;88.59
75247;BME280;63844;50.042;19.224;2022-11-27T07:25:14;100365.73;;;3.24;88.34
75247;BME280;63844;50.042;19.224;2022-11-27T07:27:41;100368.89;;;3.24;88.33
75247;BME280;63844;50.042;19.224;2022-11-27T07:30:07;100371.38;;;3.21;87.68
75247;BME280;63844;50.042;19.224;2022-11-27T07:32:34;100373.28;;;3.23;88.13
75247;BME280;63844;50.042;19.224;2022-11-27T07:35:00;100374.50;;;3.23;88.14
75247;BME280;63844;50.042;19.224;2022-11-27T07:37:30;100372.38;;;3.25;88.00
75247;BME280;63844;50.042;19.224;2022-11-27T07:39:56;100376.55;;;3.26;87.84
75247;BME280;63844;50.042;19.224;2022-11-27T07:42:23;100372.52;;;3.27;88.04
75247;BME280;63844;50.042;19.224;2022-11-27T07:44:49;100370.73;;;3.30;87.93
75247;BME280;63844;50.042;19.224;2022-11-27T07:47:16;100367.74;;;3.30;88.02
75247;BME280;63844;50.042;19.224;2022-11-27T07:49:42;100366.04;;;3.27;87.71
75247;BME280;63844;50.042;19.224;2022-11-27T07:52:08;100363.48;;;3.36;88.03
75247;BME280;63844;50.042;19.224;2022-11-27T07:54:35;100362.63;;;3.45;87.53
75247;BME280;63844;50.042;19.224;2022-11-27T07:57:02;100359.40;;;3.38;87.76
75247;BME280;63844;50.042;19.224;2022-11-27T07:59:28;100365.09;;;3.32;87.87
75247;BME280;63844;50.042;19.224;2022-11-27T08:01:55;100364.89;;;3.35;87.76
75247;BME280;63844;50.042;19.224;2022-11-27T08:04:21;100364.16;;;3.36;87.98
75247;BME280;63844;50.042;19.224;2022-11-27T08:06:48;100364.98;;;3.39;87.56
75247;BME280;63844;50.042;19.224;2022-11-27T08:09:15;100367.77;;;3.41;87.07
75247;BME280;63844;50.042;19.224;2022-11-27T08:11:41;100364.21;;;3.45;87.05
75247;BME280;63844;50.042;19.224;2022-11-27T08:14:08;100362.73;;;3.50;87.43
75247;BME280;63844;50.042;19.224;2022-11-27T08:16:34;100362.48;;;3.55;87.55
75247;BME280;63844;50.042;19.224;2022-11-27T08:19:02;100359.12;;;3.58;87.16
75247;BME280;63844;50.042;19.224;2022-11-27T08:21:31;100358.27;;;3.67;87.44
75247;BME280;63844;50.042;19.224;2022-11-27T08:23:57;100358.66;;;3.75;87.42
75247;BME280;63844;50.042;19.224;2022-11-27T08:26:24;100365.83;;;3.76;86.61
75247;BME280;63844;50.042;19.224;2022-11-27T08:28:53;100365.73;;;3.81;87.19
75247;BME280;63844;50.042;19.224;2022-11-27T08:31:20;100363.44;;;3.84;87.21
75247;BME280;63844;50.042;19.224;2022-11-27T08:33:46;100367.23;;;3.87;86.87
75247;BME280;63844;50.042;19.224;2022-11-27T08:36:13;100368.71;;;3.82;86.57
75247;BME280;63844;50.042;19.224;2022-11-27T08:38:39;100369.36;;;3.85;86.81
75247;BME280;63844;50.042;19.224;2022-11-27T08:41:07;100370.23;;;3.85;87.00
75247;BME280;63844;50.042;19.224;2022-11-27T08:43:34;100370.70;;;3.89;87.15
75247;BME280;63844;50.042;19.224;2022-11-27T08:46:04;100370.98;;;3.93;86.28
75247;BME280;63844;50.042;19.224;2022-11-27T08:48:31;100372.04;;;3.94;86.14
75247;BME280;63844;50.042;19.224;2022-11-27T08:50:57;100372.08;;;4.01;86.84
75247;BME280;63844;50.042;19.224;2022-11-27T08:53:24;100372.33;;;3.96;86.26
75247;BME280;63844;50.042;19.224;2022-11-27T08:55:50;100369.38;;;3.95;86.42
75247;BME280;63844;50.042;19.224;2022-11-27T08:58:16;100370.41;;;3.96;86.21
75247;BME280;63844;50.042;19.224;2022-11-27T09:00:43;100371.36;;;3.92;84.81
75247;BME280;63844;50.042;19.224;2022-11-27T09:03:10;100371.90;;;3.91;83.06
75247;BME280;63844;50.042;19.224;2022-11-27T09:05:41;100372.70;;;3.95;83.73
75247;BME280;63844;50.042;19.224;2022-11-27T09:08:09;100370.05;;;3.97;85.68
75247;BME280;63844;50.042;19.224;2022-11-27T09:10:38;100371.64;;;3.96;85.31
75247;BME280;63844;50.042;19.224;2022-11-27T09:13:05;100366.52;;;3.99;85.68
75247;BME280;63844;50.042;19.224;2022-11-27T09:15:31;100364.69;;;4.03;85.96
75247;BME280;63844;50.042;19.224;2022-11-27T09:17:57;100364.70;;;4.02;84.61
75247;BME280;63844;50.042;19.224;2022-11-27T09:20:24;100364.23;;;4.09;86.28
75247;BME280;63844;50.042;19.224;2022-11-27T09:22:50;100358.33;;;4.16;86.32
75247;BME280;63844;50.042;19.224;2022-11-27T09:25:16;100357.79;;;4.26;85.92
75247;BME280;63844;50.042;19.224;2022-11-27T09:27:43;100352.20;;;4.35;85.38
75247;BME280;63844;50.042;19.224;2022-11-27T09:30:10;100352.90;;;4.44;85.57
75247;BME280;63844;50.042;19.224;2022-11-27T09:32:36;100347.66;;;4.51;85.38
75247;BME280;63844;50.042;19.224;2022-11-27T09:35:03;100349.53;;;4.55;85.06
75247;BME280;63844;50.042;19.224;2022-11-27T09:37:30;100343.39;;;4.56;84.65
75247;BME280;63844;50.042;19.224;2022-11-27T09:39:56;100341.98;;;4.56;84.79
75247;BME280;63844;50.042;19.224;2022-11-27T09:42:49;100340.11;;;4.53;84.86
75247;BME280;63844;50.042;19.224;2022-11-27T09:45:19;100337.84;;;4.52;84.18
75247;BME280;63844;50.042;19.224;2022-11-27T09:47:49;100337.56;;;4.57;84.08
75247;BME280;63844;50.042;19.224;2022-11-27T09:50:23;100337.17;;;4.68;84.30
75247;BME280;63844;50.042;19.224;2022-11-27T09:52:54;100342.39;;;4.71;83.74
75247;BME280;63844;50.042;19.224;2022-11-27T09:55:25;100335.38;;;4.80;85.24
75247;BME280;63844;50.042;19.224;2022-11-27T10:01:16;100331.35;;;4.86;84.91
75247;BME280;63844;50.042;19.224;2022-11-27T10:03:44;100334.52;;;4.86;83.86
75247;BME280;63844;50.042;19.224;2022-11-27T10:06:22;100331.21;;;4.85;82.61
75247;BME280;63844;50.042;19.224;2022-11-27T10:11:30;100330.22;;;4.99;82.45
75247;BME280;63844;50.042;19.224;2022-11-27T10:17:02;100322.79;;;4.93;80.83
75247;BME280;63844;50.042;19.224;2022-11-27T10:19:50;100325.89;;;4.88;81.26
75247;BME280;63844;50.042;19.224;2022-11-27T10:22:35;100319.45;;;4.85;81.89
75247;BME280;63844;50.042;19.224;2022-11-27T10:25:20;100316.96;;;4.87;81.87
75247;BME280;63844;50.042;19.224;2022-11-27T10:30:38;100306.34;;;4.91;80.98
75247;BME280;63844;50.042;19.224;2022-11-27T10:33:17;100306.16;;;4.99;81.91
75247;BME280;63844;50.042;19.224;2022-11-27T10:35:46;100302.78;;;5.02;81.10
75247;BME280;63844;50.042;19.224;2022-11-27T10:38:18;100302.27;;;5.02;80.06
75247;BME280;63844;50.042;19.224;2022-11-27T10:43:25;100293.17;;;5.00;81.24
75247;BME280;63844;50.042;19.224;2022-11-27T10:48:36;100291.69;;;5.04;82.15
75247;BME280;63844;50.042;19.224;2022-11-27T10:51:15;100293.35;;;5.00;82.31
75247;BME280;63844;50.042;19.224;2022-11-27T10:53:44;100287.25;;;4.90;81.86
75247;BME280;63844;50.042;19.224;2022-11-27T10:59:04;100285.23;;;4.94;81.79
75247;BME280;63844;50.042;19.224;2022-11-27T11:01:49;100284.20;;;5.01;82.48
75247;BME280;63844;50.042;19.224;2022-11-27T11:04:21;100282.48;;;5.00;82.24
75247;BME280;63844;50.042;19.224;2022-11-27T11:06:48;100279.89;;;5.06;81.88
75247;BME280;63844;50.042;19.224;2022-11-27T11:09:20;100282.02;;;5.12;81.42
75247;BME280;63844;50.042;19.224;2022-11-27T11:11:48;100276.13;;;5.16;81.98
75247;BME280;63844;50.042;19.224;2022-11-27T11:14:24;100276.73;;;5.21;82.49
75247;BME280;63844;50.042;19.224;2022-11-27T11:16:53;100277.11;;;5.12;81.21
75247;BME280;63844;50.042;19.224;2022-11-27T11:19:34;100276.04;;;5.12;81.62
75247;BME280;63844;50.042;19.224;2022-11-27T11:22:04;100273.73;;;5.14;80.92
75247;BME280;63844;50.042;19.224;2022-11-27T11:24:37;100270.94;;;5.13;80.61
75247;BME280;63844;50.042;19.224;2022-11-27T11:27:20;100267.26;;;5.20;81.87
75247;BME280;63844;50.042;19.224;2022-11-27T11:30:02;100266.30;;;5.16;80.62
75247;BME280;63844;50.042;19.224;2022-11-27T11:32:33;100260.09;;;5.19;81.42
75247;BME280;63844;50.042;19.224;2022-11-27T11:35:07;100261.80;;;5.22;81.42
75247;BME280;63844;50.042;19.224;2022-11-27T11:37:38;100264.98;;;5.27;81.36
75247;BME280;63844;50.042;19.224;2022-11-27T11:40:30;100264.90;;;5.31;80.92
75247;BME280;63844;50.042;19.224;2022-11-27T11:43:04;100258.58;;;5.38;81.72
75247;BME280;63844;50.042;19.224;2022-11-27T11:45:33;100257.24;;;5.29;81.24
75247;BME280;63844;50.042;19.224;2022-11-27T11:48:02;100261.92;;;5.31;81.66
75247;BME280;63844;50.042;19.224;2022-11-27T11:53:01;100260.27;;;5.27;81.67
75247;BME280;63844;50.042;19.224;2022-11-27T11:55:38;100258.17;;;5.26;81.55
75247;BME280;63844;50.042;19.224;2022-11-27T12:00:49;100246.64;;;5.31;81.13
75247;BME280;63844;50.042;19.224;2022-11-27T12:06:16;100235.64;;;5.36;81.56
75247;BME280;63844;50.042;19.224;2022-11-27T12:08:57;100235.48;;;5.35;79.80
75247;BME280;63844;50.042;19.224;2022-11-27T12:11:36;100234.52;;;5.39;80.55
75247;BME280;63844;50.042;19.224;2022-11-27T12:14:27;100236.42;;;5.40;80.25
75247;BME280;63844;50.042;19.224;2022-11-27T12:17:16;100233.80;;;5.39;80.49
75247;BME280;63844;50.042;19.224;2022-11-27T12:20:00;100225.52;;;5.40;79.89
75247;BME280;63844;50.042;19.224;2022-11-27T12:25:25;100217.31;;;5.46;80.16
75247;BME280;63844;50.042;19.224;2022-11-27T12:47:24;100201.85;;;6.89;74.79
75247;BME280;63844;50.042;19.224;2022-11-27T12:50:02;100202.23;;;6.94;74.29
75247;BME280;63844;50.042;19.224;2022-11-27T12:52:33;100200.44;;;6.83;75.48
75247;BME280;63844;50.042;19.224;2022-11-27T12:55:25;100197.05;;;6.73;76.37
75247;BME280;63844;50.042;19.224;2022-11-27T12:57:59;100195.88;;;6.60;75.57
75247;BME280;63844;50.042;19.224;2022-11-27T13:00:29;100197.00;;;6.64;75.17
75247;BME280;63844;50.042;19.224;2022-11-27T13:03:20;100196.13;;;6.75;75.70
75247;BME280;63844;50.042;19.224;2022-11-27T13:05:50;100197.27;;;6.72;74.76
75247;BME280;63844;50.042;19.224;2022-11-27T13:08:48;100197.13;;;6.48;73.22
75247;BME280;63844;50.042;19.224;2022-11-27T13:11:19;100196.35;;;6.27;75.46
75247;BME280;63844;50.042;19.224;2022-11-27T13:13:53;100201.30;;;6.14;75.24
75247;BME280;63844;50.042;19.224;2022-11-27T13:16:25;100198.45;;;6.08;76.61
75247;BME280;63844;50.042;19.224;2022-11-27T13:19:10;100200.70;;;5.96;76.03
75247;BME280;63844;50.042;19.224;2022-11-27T13:21:40;100203.07;;;5.93;76.16
75247;BME280;63844;50.042;19.224;2022-11-27T13:24:11;100202.84;;;5.89;76.37
75247;BME280;63844;50.042;19.224;2022-11-27T13:26:41;100203.48;;;5.91;75.38
75247;BME280;63844;50.042;19.224;2022-11-27T13:29:26;100203.52;;;5.82;74.39
75247;BME280;63844;50.042;19.224;2022-11-27T13:31:57;100202.35;;;5.67;74.34
75247;BME280;63844;50.042;19.224;2022-11-27T13:34:26;100200.67;;;5.58;75.07
75247;BME280;63844;50.042;19.224;2022-11-27T13:37:03;100200.95;;;5.47;75.18
75247;BME280;63844;50.042;19.224;2022-11-27T13:39:39;100204.50;;;5.39;76.17
75247;BME280;63844;50.042;19.224;2022-11-27T13:44:42;100209.33;;;5.35;76.41
75247;BME280;63844;50.042;19.224;2022-11-27T13:47:16;100209.63;;;5.30;75.74
75247;BME280;63844;50.042;19.224;2022-11-27T13:49:44;100203.70;;;5.29;76.65
75247;BME280;63844;50.042;19.224;2022-11-27T13:52:17;100206.17;;;5.20;77.15
75247;BME280;63844;50.042;19.224;2022-11-27T13:54:58;100210.66;;;5.16;77.16
75247;BME280;63844;50.042;19.224;2022-11-27T13:57:28;100208.55;;;5.09;77.54
75247;BME280;63844;50.042;19.224;2022-11-27T14:02:41;100211.05;;;5.00;77.95
75247;BME280;63844;50.042;19.224;2022-11-27T14:05:11;100210.92;;;4.91;78.55
75247;BME280;63844;50.042;19.224;2022-11-27T14:07:50;100209.47;;;4.93;78.55
75247;BME280;63844;50.042;19.224;2022-11-27T14:10:27;100209.86;;;4.84;79.25
75247;BME280;63844;50.042;19.224;2022-11-27T14:13:00;100205.23;;;4.79;79.57
75247;BME280;63844;50.042;19.224;2022-11-27T14:15:29;100205.01;;;4.81;79.91
75247;BME280;63844;50.042;19.224;2022-11-27T14:20:45;100199.11;;;4.78;80.51
75247;BME280;63844;50.042;19.224;2022-11-27T14:23:13;100198.11;;;4.76;80.89
75247;BME280;63844;50.042;19.224;2022-11-27T14:25:39;100195.52;;;4.74;80.94
75247;BME280;63844;50.042;19.224;2022-11-27T14:28:21;100194.48;;;4.73;80.97